Terminal Aerodrome Forecast
Issued by NWS Sterling, VA

Current Version | Previous Version | Graphics & Text | Print | Product List | Glossary On
Versions: 1 2 3 4 5 6 7 8 9 10 11 12 13 14 15 16 17 18 19 20 21 22
000
FTUS41 KLWX 212336
TAFMRB
TAF
KMRB 212336Z 2200/2224 30011KT P6SM SCT070 OVC090
     FM220200 33007KT P6SM OVC040
     FM220600 01008KT P6SM -RADZ OVC035
     FM221500 02007KT 1 1/2SM -RADZ BR OVC015
     FM221900 03005KT 1SM -RADZ BR OVC003=

USA.gov is the U.S. government's official web portal to all federal, state and local government web resources and services.